Pagrindinis puslapis
METAR-TAF:

METAR-TAF

Oro uostai :

Irkutskas, Rusija

platuma: 52-16N, ilguma: 104-19E, Aukštis: 513 m

Dabartinis oras

Ataskaita buvo paskelbta 45 minutes, ne 20:00 UTC
Vėjas 12 kt iš Šiaurės Vakarų
Temperatūra -9°C
Drėgmė 62%
Slėgis 1022 hPa
Matomumas 10 km arba daugiau
nėra debesų žemiau 1500 m ir nėra kamuolinių lietaus debesų

METAR: UIII 092000Z 31006MPS CAVOK M09/M15 Q1022 R30/490337 NOSIG RMK QFE722/0963

Laikas: 04:45 (20:45 UTC)

Prognozė

Ataskaita buvo paskelbta 45 minutes, ne 20:00 UTC
Prognozė galioja nuo 09 metu 21 UTC su 10 metu 21 UTC
Vėjas 10 kt iš Vakarų/Šiaurės Vakarų
Matomumas 10 km arba daugiau
Tapsmas
nuo 10 metu 02 UTC su 10 metu 04 UTC
Vėjas 10 kt iš Pietryčių
Laikinai
nuo 10 metu 09 UTC su 10 metu 21 UTC
Matomumas: 1400 m
Su prošvaistėmis ne aukštis 800 ft
sniegas

TAF: UIII 092000Z 0921/1021 30005MPS 9999 NSC BECMG 1002/1004 14005MPS TEMPO 1009/1021 1400 SN BKN008

Orai ataskaitas ir orų prognozės (METAR, TAF).

turimą stotys yra geltonos ir raudonos taškus žemėlapyje.

Perkelti pele per norėdami pamatyti stoties vardą.

Tada spustelėkite, norėdami matyti oro stebėjimo ir prognozės.

Norėdami pakeisti žemėlapį: spustelėkite ant žalios mygtukų su juodo kryžiaus žemyn,; žalią mygtuką su brūkšneliu, jei norite nutolinti; arba žalių rodyklių gretimoms žemėlapius.


METAR-TAF: